Time;durP1;ratioP1;P1;durP2;ratioP2;P2;SDS_P1;SDS_P2;PMS_P1;PMS_P2;Temp;Humidity;BMP_temperature;BMP_pressure;BME280_temperature;BME280_humidity;BME280_pressure;Samples;Min_cycle;Max_cycle;Signal;HPM_P1;HPM_P2
2023/01/22 00:02:21;;;;;;;4.72;2.53;;;20.00;29.30;;;;;;5028653;28;20378;-50
2023/01/22 00:04:47;;;;;;;2.78;2.17;;;20.00;29.30;;;;;;5028500;28;20524;-56
2023/01/22 00:07:14;;;;;;;3.30;2.47;;;20.00;29.30;;;;;;5029037;28;20033;-52
2023/01/22 00:09:41;;;;;;;3.47;2.25;;;20.00;29.30;;;;;;5029443;28;20029;-55
2023/01/22 00:12:08;;;;;;;3.83;2.20;;;20.00;29.30;;;;;;5029229;28;20353;-55
2023/01/22 00:14:34;;;;;;;2.60;2.30;;;20.00;29.40;;;;;;5028363;28;20037;-55
2023/01/22 00:17:00;;;;;;;2.88;2.28;;;20.00;29.40;;;;;;5026860;28;20095;-54
2023/01/22 00:19:26;;;;;;;3.75;2.50;;;20.00;29.40;;;;;;5026200;28;20029;-54
2023/01/22 00:21:51;;;;;;;3.33;2.22;;;20.00;29.40;;;;;;5028678;28;20029;-51
2023/01/22 00:24:17;;;;;;;2.55;2.30;;;19.90;29.40;;;;;;5028422;28;20399;-53
2023/01/22 00:26:44;;;;;;;2.95;2.35;;;19.90;29.40;;;;;;5030302;28;20040;-53
2023/01/22 00:29:10;;;;;;;3.28;2.80;;;19.90;29.50;;;;;;5031374;28;20043;-53
2023/01/22 00:31:36;;;;;;;3.22;2.47;;;19.90;29.50;;;;;;5024940;28;20653;-51
2023/01/22 00:34:02;;;;;;;3.15;2.42;;;19.90;29.50;;;;;;5030591;28;20029;-50
2023/01/22 00:36:30;;;;;;;3.90;2.55;;;19.90;29.50;;;;;;5011951;28;20022;-54
2023/01/22 00:38:55;;;;;;;3.25;2.30;;;19.90;29.90;;;;;;5032523;28;20026;-54
2023/01/22 00:41:21;;;;;;;2.60;2.15;;;19.90;29.50;;;;;;5031260;28;20033;-52
2023/01/22 00:43:48;;;;;;;2.60;2.40;;;19.90;30.00;;;;;;5013465;28;20025;-54
2023/01/22 00:46:16;;;;;;;3.42;2.40;;;19.90;29.60;;;;;;5030026;28;20029;-52
2023/01/22 00:48:44;;;;;;;2.15;1.90;;;19.90;29.70;;;;;;5032303;28;20055;-53
2023/01/22 00:51:11;;;;;;;2.67;2.08;;;19.80;29.70;;;;;;5030123;28;20361;-51
2023/01/22 00:53:40;;;;;;;2.92;2.05;;;19.80;29.70;;;;;;5027581;28;20142;-50
2023/01/22 00:56:06;;;;;;;3.08;2.10;;;19.80;29.60;;;;;;5013222;28;20079;-53
2023/01/22 00:58:32;;;;;;;2.50;2.10;;;19.80;29.60;;;;;;5032381;28;21778;-53
2023/01/22 01:01:01;;;;;;;2.35;2.15;;;19.80;29.50;;;;;;5021979;28;20392;-49
2023/01/22 01:03:29;;;;;;;2.53;2.30;;;19.80;29.50;;;;;;5031211;28;20025;-51
2023/01/22 01:06:07;;;;;;;3.28;2.40;;;19.80;29.50;;;;;;5011447;28;20026;-48
2023/01/22 01:08:37;;;;;;;2.38;2.13;;;19.80;30.00;;;;;;5030696;28;20025;-52
2023/01/22 01:11:05;;;;;;;3.05;2.38;;;19.80;29.50;;;;;;5030640;28;20085;-58
2023/01/22 01:13:37;;;;;;;2.72;2.10;;;19.70;29.40;;;;;;5031731;28;20433;-54
2023/01/22 01:16:16;;;;;;;2.58;2.00;;;19.70;29.40;;;;;;5030829;28;20101;-53
2023/01/22 01:18:45;;;;;;;2.25;2.03;;;19.70;29.40;;;;;;5027533;28;20030;-55
2023/01/22 01:21:12;;;;;;;2.15;1.88;;;19.70;29.40;;;;;;5003904;28;20049;-51
2023/01/22 01:23:38;;;;;;;3.60;2.20;;;19.70;29.40;;;;;;5023100;28;20064;-54
2023/01/22 01:26:09;;;;;;;2.67;1.90;;;19.70;29.40;;;;;;5032484;28;20381;-54
2023/01/22 01:28:38;;;;;;;2.75;1.90;;;19.70;29.40;;;;;;5013273;28;20396;-55
2023/01/22 01:31:10;;;;;;;3.25;2.03;;;19.70;29.40;;;;;;5014039;28;20034;-50
2023/01/22 01:33:36;;;;;;;2.28;2.00;;;19.70;29.40;;;;;;5030206;28;20103;-49
2023/01/22 01:36:05;;;;;;;2.65;2.03;;;19.70;29.50;;;;;;5030375;28;20034;-51
2023/01/22 01:38:32;;;;;;;2.58;1.50;;;19.60;29.40;;;;;;5027802;28;20037;-53
2023/01/22 01:40:59;;;;;;;2.70;1.92;;;19.60;29.50;;;;;;5032571;28;20087;-53
2023/01/22 01:43:26;;;;;;;2.85;1.85;;;19.60;29.50;;;;;;5013159;28;20041;-56
2023/01/22 01:45:52;;;;;;;3.08;2.00;;;19.60;30.00;;;;;;5029424;28;20033;-55
2023/01/22 01:48:36;;;;;;;2.35;1.80;;;19.60;29.50;;;;;;5030891;28;20040;-51
2023/01/22 01:51:06;;;;;;;2.58;2.05;;;19.60;29.50;;;;;;5008826;28;20038;-51
2023/01/22 01:53:32;;;;;;;2.92;2.05;;;19.60;29.50;;;;;;5012087;28;20480;-55
2023/01/22 01:55:59;;;;;;;2.55;1.88;;;19.60;29.50;;;;;;5030686;28;20453;-54
2023/01/22 01:58:29;;;;;;;2.80;2.00;;;19.60;29.60;;;;;;5013159;28;20037;-48
2023/01/22 02:01:02;;;;;;;2.83;2.20;;;19.60;29.60;;;;;;5027808;28;20029;-49
2023/01/22 02:03:29;;;;;;;2.40;1.88;;;19.60;29.60;;;;;;5031303;28;20029;-47
2023/01/22 02:05:56;;;;;;;2.80;2.20;;;19.60;29.60;;;;;;5028163;28;20117;-50
2023/01/22 02:08:22;;;;;;;3.72;1.80;;;19.60;29.60;;;;;;5010375;28;20033;-51
2023/01/22 02:10:48;;;;;;;3.03;1.98;;;19.50;29.50;;;;;;5029639;28;20036;-49
2023/01/22 02:13:19;;;;;;;1.98;1.70;;;19.50;29.50;;;;;;5012910;28;20381;-54
2023/01/22 02:15:46;;;;;;;2.25;2.00;;;19.60;29.60;;;;;;5010692;28;20029;-51
2023/01/22 02:18:12;;;;;;;1.83;1.60;;;19.50;29.50;;;;;;5030092;28;20092;-55
2023/01/22 02:20:39;;;;;;;2.70;2.08;;;19.50;29.50;;;;;;5007944;28;20057;-55
2023/01/22 02:23:06;;;;;;;1.88;1.63;;;19.50;29.50;;;;;;5007408;28;20064;-53
2023/01/22 02:25:33;;;;;;;2.20;1.77;;;19.50;29.50;;;;;;5009694;28;20430;-54
2023/01/22 02:27:59;;;;;;;3.35;2.10;;;19.50;29.50;;;;;;5009941;28;20132;-55
2023/01/22 02:30:25;;;;;;;3.90;2.15;;;19.50;29.50;;;;;;5008610;28;20029;-55
2023/01/22 02:32:51;;;;;;;2.85;2.00;;;19.50;29.50;;;;;;5010675;28;20030;-54
2023/01/22 02:35:17;;;;;;;2.63;1.73;;;19.50;29.50;;;;;;5015561;28;20102;-55
2023/01/22 02:37:46;;;;;;;3.35;1.85;;;19.50;29.50;;;;;;5006017;28;20521;-54
2023/01/22 02:40:12;;;;;;;2.47;2.05;;;19.40;29.50;;;;;;5010195;28;20044;-54
2023/01/22 02:42:38;;;;;;;3.00;2.15;;;19.50;29.50;;;;;;5009979;28;20366;-54
2023/01/22 02:45:05;;;;;;;2.35;1.73;;;19.50;29.50;;;;;;5010062;28;20036;-52
2023/01/22 02:47:34;;;;;;;2.53;1.95;;;19.50;29.50;;;;;;5007115;28;20038;-56
2023/01/22 02:50:00;;;;;;;2.58;1.92;;;19.50;29.50;;;;;;5009209;28;20034;-61
2023/01/22 02:52:26;;;;;;;2.95;2.10;;;19.50;29.60;;;;;;5007712;28;20049;-52
2023/01/22 02:54:52;;;;;;;2.33;1.73;;;19.40;29.70;;;;;;5008492;28;20432;-55
2023/01/22 02:57:18;;;;;;;2.42;2.00;;;19.50;29.70;;;;;;5011048;28;20030;-51
2023/01/22 02:59:44;;;;;;;2.28;1.85;;;19.40;29.70;;;;;;5009309;28;20033;-54
2023/01/22 03:02:11;;;;;;;2.78;1.98;;;19.40;29.70;;;;;;5008135;28;20361;-54
2023/01/22 03:04:36;;;;;;;2.22;2.03;;;19.40;29.70;;;;;;5008319;28;20112;-54
2023/01/22 03:07:02;;;;;;;2.42;1.95;;;19.40;29.60;;;;;;5009005;28;20129;-52
2023/01/22 03:09:28;;;;;;;2.03;1.80;;;19.40;29.60;;;;;;5010790;28;20041;-52
2023/01/22 03:11:55;;;;;;;2.53;1.92;;;19.40;29.60;;;;;;5007172;28;20026;-54
2023/01/22 03:22:42;;;;;;;2.38;1.80;;;19.30;29.50;;;;;;5005491;28;20425;-52
2023/01/22 03:25:08;;;;;;;3.13;2.17;;;19.30;29.50;;;;;;5007759;28;20029;-51
2023/01/22 03:27:35;;;;;;;2.65;1.95;;;19.30;29.60;;;;;;5007782;28;20025;-53
2023/01/22 03:30:03;;;;;;;2.80;2.10;;;19.30;29.50;;;;;;5008623;28;20026;-55
2023/01/22 03:32:32;;;;;;;2.47;1.80;;;19.30;30.00;;;;;;4991442;28;20357;-51
2023/01/22 03:34:58;;;;;;;1.92;1.75;;;19.30;29.60;;;;;;5018982;28;20052;-53
2023/01/22 03:37:29;;;;;;;2.35;1.92;;;19.30;29.50;;;;;;5006032;28;20544;-51
2023/01/22 03:39:56;;;;;;;2.33;1.85;;;19.30;29.50;;;;;;5010280;28;20026;-53
2023/01/22 03:42:33;;;;;;;2.53;1.70;;;19.30;29.50;;;;;;5007720;28;20447;-53
2023/01/22 03:45:01;;;;;;;3.55;1.95;;;19.30;29.50;;;;;;5009898;28;20026;-50
2023/01/22 03:47:26;;;;;;;2.88;2.08;;;19.20;29.50;;;;;;5007581;28;20426;-50
2023/01/22 03:49:53;;;;;;;2.78;2.13;;;19.30;29.50;;;;;;5006775;28;20095;-51
2023/01/22 03:52:19;;;;;;;1.70;1.55;;;19.20;29.50;;;;;;5008582;28;20030;-53
2023/01/22 03:54:45;;;;;;;1.90;1.70;;;19.30;29.50;;;;;;5009878;28;20377;-54
2023/01/22 03:57:11;;;;;;;2.53;1.70;;;19.20;29.50;;;;;;5009352;28;20038;-51
2023/01/22 03:59:39;;;;;;;1.80;1.60;;;19.20;29.40;;;;;;5008405;28;20044;-55
2023/01/22 04:02:06;;;;;;;2.33;1.90;;;19.20;29.40;;;;;;5009834;28;20030;-53
2023/01/22 04:04:39;;;;;;;2.90;1.95;;;19.20;29.40;;;;;;5007036;28;20033;-49
2023/01/22 04:07:05;;;;;;;2.20;1.70;;;19.20;29.40;;;;;;5012656;28;20025;-51
2023/01/22 04:09:31;;;;;;;1.70;1.60;;;19.20;29.40;;;;;;5011271;28;20038;-52
2023/01/22 04:11:57;;;;;;;3.05;1.88;;;19.20;29.50;;;;;;5023433;28;20038;-48
2023/01/22 04:14:25;;;;;;;2.15;1.73;;;19.20;29.40;;;;;;5011441;28;20041;-54
2023/01/22 04:16:57;;;;;;;1.98;1.77;;;19.20;29.50;;;;;;5011451;28;20037;-51
2023/01/22 04:19:38;;;;;;;2.00;1.48;;;19.20;29.50;;;;;;5011234;28;20084;-50
2023/01/22 04:22:28;;;;;;;2.30;1.70;;;19.20;29.50;;;;;;4998004;28;20049;-48
2023/01/22 04:24:55;;;;;;;3.03;2.15;;;19.20;29.50;;;;;;5010681;28;20102;-51
2023/01/22 04:27:21;;;;;;;4.45;1.98;;;19.20;29.50;;;;;;5009752;28;20054;-51
2023/01/22 04:29:49;;;;;;;2.30;1.95;;;19.20;29.50;;;;;;5011235;28;20037;-49
2023/01/22 04:32:15;;;;;;;2.65;2.17;;;19.20;29.50;;;;;;5007728;28;20515;-51
2023/01/22 04:34:58;;;;;;;2.22;2.03;;;19.10;29.50;;;;;;5008925;28;20070;-54
2023/01/22 04:37:42;;;;;;;2.33;1.90;;;19.10;29.50;;;;;;5016604;28;20037;-51
2023/01/22 04:40:09;;;;;;;2.58;1.92;;;19.10;29.50;;;;;;5018873;28;20018;-53
2023/01/22 04:42:37;;;;;;;1.90;1.70;;;19.10;29.50;;;;;;5008422;28;20151;-53
2023/01/22 04:45:04;;;;;;;2.13;1.75;;;19.10;29.50;;;;;;5009003;28;20022;-51
2023/01/22 04:47:30;;;;;;;1.77;1.33;;;19.10;29.50;;;;;;5009849;28;20018;-49
2023/01/22 04:49:56;;;;;;;2.45;1.80;;;19.10;29.50;;;;;;5012813;28;20033;-52
2023/01/22 04:52:22;;;;;;;2.35;1.77;;;19.10;29.50;;;;;;5021334;28;20030;-51
2023/01/22 04:54:50;;;;;;;3.47;1.80;;;19.10;29.50;;;;;;5009979;28;20136;-51
2023/01/22 04:57:17;;;;;;;2.00;1.80;;;19.10;29.50;;;;;;4994138;28;20030;-52
2023/01/22 04:59:42;;;;;;;1.90;1.38;;;19.10;29.50;;;;;;5011141;28;20030;-52
2023/01/22 05:02:08;;;;;;;2.28;1.80;;;19.10;29.50;;;;;;5011619;28;21911;-53
2023/01/22 05:04:34;;;;;;;2.10;1.70;;;19.10;29.50;;;;;;4994836;28;20036;-51
2023/01/22 05:07:01;;;;;;;2.63;1.83;;;19.10;29.50;;;;;;5010183;28;20022;-51
2023/01/22 05:09:26;;;;;;;2.75;2.00;;;19.10;29.50;;;;;;5010539;28;20021;-49
2023/01/22 05:11:58;;;;;;;2.30;1.67;;;19.10;29.50;;;;;;5009455;28;20457;-55
2023/01/22 05:14:25;;;;;;;2.03;1.80;;;19.00;29.50;;;;;;5011563;28;20457;-53
2023/01/22 05:16:51;;;;;;;1.88;1.35;;;19.00;29.60;;;;;;5010818;28;20026;-53
2023/01/22 05:19:17;;;;;;;2.20;1.88;;;19.00;29.70;;;;;;5010718;28;20039;-55
2023/01/22 05:21:43;;;;;;;2.22;1.67;;;19.10;29.80;;;;;;5029466;28;20109;-49
2023/01/22 05:24:11;;;;;;;2.33;1.50;;;19.00;29.70;;;;;;4997421;28;20125;-52
2023/01/22 05:26:38;;;;;;;3.15;2.03;;;19.00;29.70;;;;;;5011942;28;20096;-50
2023/01/22 05:29:10;;;;;;;2.22;1.58;;;19.00;29.60;;;;;;5014095;28;20029;-52
2023/01/22 05:32:12;;;;;;;2.92;1.70;;;19.00;29.60;;;;;;4963318;28;20504;-56
2023/01/22 05:34:44;;;;;;;1.98;1.50;;;19.00;29.60;;;;;;5001245;28;20045;-55
2023/01/22 05:37:11;;;;;;;2.15;1.60;;;19.00;29.50;;;;;;5013281;28;20022;-53
2023/01/22 05:39:36;;;;;;;2.78;1.77;;;19.00;29.50;;;;;;5031173;28;20033;-50
2023/01/22 05:42:05;;;;;;;1.50;1.40;;;19.00;29.50;;;;;;5011904;28;20036;-52
2023/01/22 05:44:31;;;;;;;1.85;1.40;;;19.00;29.50;;;;;;5014222;28;20115;-52
2023/01/22 05:46:59;;;;;;;1.63;1.38;;;19.00;29.50;;;;;;5022204;28;20021;-52
2023/01/22 05:49:43;;;;;;;2.20;1.52;;;19.00;29.50;;;;;;5027983;28;20183;-54
2023/01/22 05:52:12;;;;;;;2.72;1.50;;;19.00;29.50;;;;;;5011479;28;20071;-54
2023/01/22 05:54:38;;;;;;;1.70;1.42;;;19.00;29.50;;;;;;5011551;28;20045;-55
2023/01/22 05:57:05;;;;;;;1.80;1.30;;;19.00;29.50;;;;;;5031369;28;20021;-54
2023/01/22 05:59:31;;;;;;;1.75;1.60;;;19.00;29.50;;;;;;5012711;28;20042;-53
2023/01/22 06:02:01;;;;;;;1.38;1.20;;;18.90;29.50;;;;;;5010998;28;20496;-54
2023/01/22 06:04:28;;;;;;;2.30;1.52;;;19.00;29.50;;;;;;5012800;28;20171;-55
2023/01/22 06:06:53;;;;;;;1.67;1.35;;;18.90;29.40;;;;;;5013947;28;20025;-54
2023/01/22 06:09:22;;;;;;;2.30;1.50;;;18.90;29.40;;;;;;5027274;28;20041;-52
2023/01/22 06:11:48;;;;;;;1.30;1.20;;;18.90;29.40;;;;;;5011686;28;20338;-51
2023/01/22 06:14:15;;;;;;;1.83;1.40;;;18.90;29.40;;;;;;5012054;28;20124;-55
2023/01/22 06:16:41;;;;;;;2.22;1.60;;;18.90;29.40;;;;;;5013812;28;20453;-54
2023/01/22 06:19:30;;;;;;;2.33;1.48;;;18.90;29.40;;;;;;5017321;28;20071;-53
2023/01/22 06:21:56;;;;;;;1.25;1.15;;;18.90;29.40;;;;;;5010493;28;20364;-53
2023/01/22 06:24:30;;;;;;;2.70;1.30;;;18.90;29.40;;;;;;5013149;28;20029;-52
2023/01/22 06:26:58;;;;;;;1.50;1.35;;;18.90;29.40;;;;;;5012314;28;20163;-49
2023/01/22 06:29:33;;;;;;;1.85;1.30;;;18.90;29.90;;;;;;5011152;28;20037;-50
2023/01/22 06:31:59;;;;;;;1.70;1.30;;;18.90;29.40;;;;;;5013311;28;20029;-52
2023/01/22 06:34:25;;;;;;;1.48;1.15;;;18.90;29.40;;;;;;5007857;28;20176;-52
2023/01/22 06:36:51;;;;;;;1.55;1.02;;;18.90;29.40;;;;;;5013058;28;20025;-48
2023/01/22 06:39:18;;;;;;;2.03;1.25;;;18.90;29.40;;;;;;5011293;28;20032;-52
2023/01/22 06:41:56;;;;;;;1.52;1.05;;;18.90;29.40;;;;;;5012902;28;20068;-53
2023/01/22 06:44:22;;;;;;;1.42;1.05;;;18.90;29.40;;;;;;5011775;28;20053;-54
2023/01/22 06:46:49;;;;;;;1.65;1.13;;;18.90;29.40;;;;;;5010007;28;20022;-51
2023/01/22 06:49:25;;;;;;;1.73;1.08;;;18.90;29.40;;;;;;5010089;28;20403;-53
2023/01/22 06:51:51;;;;;;;1.88;1.20;;;18.80;29.40;;;;;;5028020;28;20109;-54
2023/01/22 06:54:17;;;;;;;1.35;1.02;;;18.80;29.30;;;;;;5009327;28;20041;-52
2023/01/22 06:56:43;;;;;;;1.63;1.20;;;18.80;29.30;;;;;;5009528;28;20049;-49
2023/01/22 06:59:11;;;;;;;1.27;0.85;;;18.90;29.90;;;;;;5012570;28;20088;-49
2023/01/22 07:01:37;;;;;;;1.20;1.00;;;18.80;29.40;;;;;;5029338;28;20310;-49
2023/01/22 07:04:03;;;;;;;1.25;0.90;;;18.80;29.40;;;;;;5028715;28;20116;-51
2023/01/22 07:06:29;;;;;;;1.92;1.00;;;18.80;29.40;;;;;;5029837;28;20044;-50
2023/01/22 07:08:55;;;;;;;2.53;1.00;;;18.80;29.40;;;;;;5031044;28;20022;-51
2023/01/22 07:11:22;;;;;;;2.08;1.30;;;18.80;29.40;;;;;;5029416;28;20108;-51
2023/01/22 07:13:47;;;;;;;1.42;0.98;;;18.80;29.40;;;;;;5029221;28;20064;-55
2023/01/22 07:16:13;;;;;;;1.75;1.20;;;18.80;29.40;;;;;;5028066;28;20029;-54
2023/01/22 07:18:39;;;;;;;1.65;0.90;;;18.80;29.40;;;;;;5029327;28;20356;-50
2023/01/22 07:21:05;;;;;;;1.58;1.00;;;18.80;29.40;;;;;;5029059;28;20087;-48
2023/01/22 07:23:32;;;;;;;1.23;0.82;;;18.80;29.40;;;;;;5027717;28;20061;-50
2023/01/22 07:25:58;;;;;;;1.85;0.90;;;18.80;29.50;;;;;;5027087;28;20040;-48
2023/01/22 07:28:23;;;;;;;1.20;0.90;;;18.70;29.60;;;;;;5012299;28;20380;-49
2023/01/22 07:30:49;;;;;;;3.10;1.40;;;18.80;29.60;;;;;;5028042;28;20033;-50
2023/01/22 07:33:15;;;;;;;2.03;1.00;;;18.80;29.60;;;;;;5028898;28;20121;-48
2023/01/22 07:35:42;;;;;;;1.77;0.88;;;18.70;29.60;;;;;;5035377;28;20068;-52
2023/01/22 07:38:07;;;;;;;0.77;0.70;;;18.80;29.60;;;;;;5021139;28;20017;-54
2023/01/22 07:40:33;;;;;;;0.98;0.70;;;18.80;29.60;;;;;;5024326;28;20017;-49
2023/01/22 07:43:05;;;;;;;0.98;0.75;;;18.80;29.60;;;;;;5013284;28;20120;-48
2023/01/22 07:45:33;;;;;;;1.92;0.70;;;18.70;29.70;;;;;;5015805;28;20033;-48
2023/01/22 07:47:59;;;;;;;1.08;0.70;;;18.80;29.80;;;;;;5033705;28;20108;-51
2023/01/22 07:50:29;;;;;;;2.00;1.00;;;18.70;29.70;;;;;;5026987;28;20040;-50
2023/01/22 07:52:55;;;;;;;1.52;1.00;;;18.80;29.80;;;;;;5025311;28;20803;-48
2023/01/22 07:55:22;;;;;;;2.90;1.00;;;18.80;29.80;;;;;;5019512;28;20037;-53
2023/01/22 07:57:48;;;;;;;2.58;0.93;;;18.70;29.70;;;;;;5030697;28;20357;-46
2023/01/22 08:00:14;;;;;;;2.17;0.93;;;18.70;29.70;;;;;;5028648;28;20028;-52
2023/01/22 08:02:41;;;;;;;1.73;0.70;;;18.70;29.60;;;;;;5031734;28;20392;-54
2023/01/22 08:05:09;;;;;;;1.10;0.77;;;18.70;29.60;;;;;;5028169;28;20021;-55
2023/01/22 08:07:35;;;;;;;1.40;0.80;;;18.70;29.60;;;;;;5025016;28;20504;-56
2023/01/22 08:10:01;;;;;;;2.03;0.80;;;18.70;29.70;;;;;;5026245;28;20026;-47
2023/01/22 08:12:27;;;;;;;1.65;0.95;;;18.70;29.70;;;;;;5028654;28;20075;-47
2023/01/22 08:14:53;;;;;;;2.20;1.00;;;18.70;29.70;;;;;;5027549;28;20045;-47
2023/01/22 08:17:19;;;;;;;1.33;0.90;;;18.60;29.80;;;;;;5031016;28;20052;-49
2023/01/22 08:19:45;;;;;;;2.40;0.85;;;18.60;29.70;;;;;;5012920;28;20125;-52
2023/01/22 08:22:11;;;;;;;1.60;0.77;;;18.60;29.80;;;;;;5034647;28;20033;-52
2023/01/22 08:24:36;;;;;;;1.98;0.80;;;18.60;29.80;;;;;;5027593;28;20044;-51
2023/01/22 08:27:02;;;;;;;2.03;0.82;;;18.60;29.80;;;;;;5028897;28;20041;-53
2023/01/22 08:29:28;;;;;;;1.77;0.90;;;18.60;29.80;;;;;;5027718;28;20040;-50
2023/01/22 08:31:54;;;;;;;1.42;0.80;;;18.60;29.80;;;;;;5023893;28;20341;-55
2023/01/22 08:34:21;;;;;;;1.42;0.70;;;18.60;29.80;;;;;;5020326;28;20049;-53
2023/01/22 08:36:47;;;;;;;1.02;0.70;;;18.60;29.80;;;;;;5029346;28;20465;-51
2023/01/22 08:39:13;;;;;;;2.10;0.70;;;18.60;29.80;;;;;;5027635;28;20087;-51
2023/01/22 08:41:40;;;;;;;1.25;0.60;;;18.60;29.80;;;;;;5027622;28;20029;-47
2023/01/22 08:44:06;;;;;;;1.00;0.60;;;18.60;29.80;;;;;;5025484;28;20022;-52
2023/01/22 08:46:34;;;;;;;1.55;0.80;;;18.60;29.90;;;;;;5026995;28;20040;-54
2023/01/22 08:49:02;;;;;;;1.35;0.60;;;18.60;30.00;;;;;;5023274;28;20103;-52
2023/01/22 08:51:28;;;;;;;1.08;0.47;;;18.60;30.20;;;;;;5023346;28;20057;-53
2023/01/22 08:53:54;;;;;;;1.90;0.50;;;18.60;30.40;;;;;;5030014;28;20041;-53
2023/01/22 08:56:20;;;;;;;1.17;0.63;;;18.60;30.60;;;;;;5029779;28;20495;-55
2023/01/22 08:58:50;;;;;;;2.70;0.90;;;18.60;30.70;;;;;;5026215;28;20088;-54
2023/01/22 09:01:18;;;;;;;1.50;0.57;;;18.70;30.90;;;;;;5025896;28;20437;-53
2023/01/22 09:03:44;;;;;;;2.10;0.82;;;18.80;31.60;;;;;;5027373;28;20037;-52
2023/01/22 09:06:11;;;;;;;2.47;0.77;;;18.80;31.00;;;;;;5026324;28;20025;-54
2023/01/22 09:08:36;;;;;;;2.92;1.00;;;18.90;31.00;;;;;;5032968;28;20388;-52
2023/01/22 09:11:04;;;;;;;1.50;0.80;;;18.90;31.00;;;;;;5035256;28;20052;-52
2023/01/22 09:13:30;;;;;;;1.83;0.65;;;19.00;31.10;;;;;;5033567;28;20048;-54
2023/01/22 09:15:56;;;;;;;2.10;0.68;;;19.00;31.10;;;;;;5026637;28;20037;-55
2023/01/22 09:18:23;;;;;;;3.25;1.10;;;19.10;31.10;;;;;;5027506;28;20033;-48
2023/01/22 09:20:49;;;;;;;1.48;0.73;;;19.20;31.10;;;;;;5007191;28;20067;-54
2023/01/22 09:23:15;;;;;;;2.55;1.02;;;19.30;31.20;;;;;;5026795;28;20030;-52
2023/01/22 09:25:41;;;;;;;2.45;0.70;;;19.30;31.30;;;;;;5025893;28;20108;-59
2023/01/22 09:28:10;;;;;;;1.50;0.60;;;19.40;31.10;;;;;;5004329;28;20038;-54
2023/01/22 09:30:39;;;;;;;2.70;0.80;;;19.50;31.10;;;;;;5024422;28;20029;-53
2023/01/22 09:33:05;;;;;;;3.70;1.00;;;19.60;31.20;;;;;;5023349;28;20049;-51
2023/01/22 09:35:30;;;;;;;2.25;0.90;;;19.60;30.70;;;;;;5019917;28;20108;-52
2023/01/22 09:37:56;;;;;;;1.90;0.80;;;19.60;30.00;;;;;;5017323;28;20040;-54
2023/01/22 09:40:29;;;;;;;2.40;0.90;;;19.50;29.50;;;;;;5025590;28;20445;-53
2023/01/22 09:43:14;;;;;;;2.30;0.90;;;19.60;29.30;;;;;;5010989;28;20025;-56
2023/01/22 09:45:40;;;;;;;0.85;0.50;;;19.60;29.10;;;;;;5025630;28;20365;-51
2023/01/22 09:48:13;;;;;;;2.05;0.60;;;19.70;29.10;;;;;;5028193;28;20041;-54
2023/01/22 09:50:40;;;;;;;1.00;0.57;;;19.80;29.10;;;;;;5028311;28;20048;-56
2023/01/22 09:53:12;;;;;;;1.38;0.52;;;19.90;29.10;;;;;;5028677;28;20029;-55
2023/01/22 09:55:43;;;;;;;1.73;0.65;;;20.00;29.10;;;;;;5025347;28;20034;-54
2023/01/22 09:58:20;;;;;;;0.93;0.43;;;20.10;29.10;;;;;;5028039;28;20440;-54
2023/01/22 10:01:00;;;;;;;1.42;0.50;;;20.20;29.10;;;;;;5024105;28;20029;-54
2023/01/22 10:03:34;;;;;;;0.60;0.35;;;20.20;29.10;;;;;;5014024;28;20582;-49
2023/01/22 10:06:12;;;;;;;0.82;0.50;;;20.30;29.10;;;;;;5026807;28;20115;-51
2023/01/22 10:09:06;;;;;;;0.90;0.57;;;20.40;29.10;;;;;;5023980;28;20452;-54
2023/01/22 10:11:32;;;;;;;1.30;0.55;;;20.40;29.00;;;;;;5015987;28;20465;-53
2023/01/22 10:14:01;;;;;;;0.80;0.40;;;20.50;29.10;;;;;;4997520;28;20037;-47
2023/01/22 10:16:27;;;;;;;2.03;0.70;;;20.50;29.10;;;;;;5018400;28;21427;-50
2023/01/22 10:19:26;;;;;;;2.22;0.63;;;20.50;29.10;;;;;;5025390;28;20112;-46
2023/01/22 10:21:58;;;;;;;0.77;0.43;;;20.60;29.10;;;;;;5009922;28;20045;-49
2023/01/22 10:24:24;;;;;;;1.08;0.50;;;20.70;29.10;;;;;;5030735;28;20044;-56
2023/01/22 10:26:53;;;;;;;1.08;0.50;;;20.70;29.00;;;;;;5004474;28;20029;-52
2023/01/22 10:29:26;;;;;;;0.80;0.60;;;20.70;29.10;;;;;;5032712;28;20379;-49
2023/01/22 10:32:25;;;;;;;1.23;0.50;;;20.80;29.20;;;;;;5032202;28;20044;-52
2023/01/22 10:35:10;;;;;;;1.20;0.50;;;20.80;29.20;;;;;;5032029;28;20191;-47
2023/01/22 10:37:48;;;;;;;2.17;0.82;;;20.90;29.30;;;;;;5032892;28;20112;-58
2023/01/22 10:40:26;;;;;;;4.47;1.30;;;20.90;29.60;;;;;;5031610;28;20026;-59
2023/01/22 10:43:16;;;;;;;4.07;1.15;;;20.80;28.70;;;;;;5033003;28;20068;-54
2023/01/22 10:45:58;;;;;;;2.50;1.20;;;20.50;28.30;;;;;;5031791;28;20025;-54
2023/01/22 10:48:24;;;;;;;4.05;1.20;;;20.30;28.50;;;;;;5027243;28;20037;-50
2023/01/22 10:51:11;;;;;;;3.45;1.00;;;20.20;28.50;;;;;;5021355;28;20386;-54
2023/01/22 10:53:44;;;;;;;2.67;0.80;;;20.20;28.70;;;;;;5026944;28;20134;-53
2023/01/22 10:56:11;;;;;;;5.15;1.88;;;20.20;28.90;;;;;;5031100;28;20029;-52
2023/01/22 10:58:44;;;;;;;8.90;2.40;;;20.20;29.30;;;;;;5033750;28;20095;-55
2023/01/22 11:01:34;;;;;;;6.97;3.10;;;20.30;30.40;;;;;;5031118;28;20432;-52
2023/01/22 11:04:19;;;;;;;5.57;2.47;;;20.30;31.60;;;;;;5013886;28;20457;-50
2023/01/22 11:06:49;;;;;;;6.18;2.33;;;20.40;31.80;;;;;;5029963;28;20056;-46
2023/01/22 11:09:19;;;;;;;3.45;1.70;;;20.40;31.80;;;;;;5030396;28;20022;-50
2023/01/22 11:11:51;;;;;;;5.03;2.20;;;20.50;31.60;;;;;;5032101;28;20033;-53
2023/01/22 11:14:28;;;;;;;5.28;2.22;;;20.40;31.60;;;;;;5016524;28;20356;-53
2023/01/22 11:17:02;;;;;;;4.38;1.73;;;20.50;32.10;;;;;;5032151;28;20445;-51
2023/01/22 11:19:40;;;;;;;3.47;1.53;;;20.50;32.10;;;;;;5014659;28;20025;-50
2023/01/22 11:22:39;;;;;;;4.20;1.67;;;20.50;31.90;;;;;;5031030;28;20810;-53
2023/01/22 11:25:10;;;;;;;3.63;1.33;;;20.60;31.80;;;;;;5031174;28;20046;-51
2023/01/22 11:27:56;;;;;;;3.75;1.38;;;20.60;31.60;;;;;;5030774;28;20033;-54
2023/01/22 11:30:42;;;;;;;5.97;2.13;;;20.60;31.70;;;;;;5033097;28;20506;-54
2023/01/22 11:33:39;;;;;;;5.13;2.08;;;20.60;32.50;;;;;;5030778;28;20029;-53
2023/01/22 11:36:13;;;;;;;4.18;2.35;;;20.60;33.10;;;;;;5032310;28;20060;-56
2023/01/22 11:38:50;;;;;;;8.95;3.35;;;20.70;33.80;;;;;;5030720;28;20349;-53
2023/01/22 11:41:48;;;;;;;10.82;4.13;;;20.70;34.20;;;;;;5031960;28;20700;-52
2023/01/22 11:44:30;;;;;;;10.55;4.63;;;20.70;34.90;;;;;;5031449;28;20041;-49
2023/01/22 11:46:55;;;;;;;8.50;4.13;;;20.70;35.10;;;;;;5032324;28;20053;-48
2023/01/22 11:49:27;;;;;;;8.80;4.10;;;20.70;35.30;;;;;;5031951;28;20057;-48
2023/01/22 11:52:14;;;;;;;10.07;4.28;;;20.70;35.60;;;;;;5030921;28;20036;-53
2023/01/22 11:54:59;;;;;;;13.05;4.22;;;20.80;35.80;;;;;;5031468;28;20038;-55
2023/01/22 11:57:44;;;;;;;12.98;5.00;;;20.80;36.00;;;;;;5032932;28;20334;-57
2023/01/22 12:00:23;;;;;;;;;;;20.80;35.90;;;;;;5015113;28;20166;-54
2023/01/22 12:03:10;;;;;;;6.75;3.17;;;20.80;35.60;;;;;;5032380;28;19967;-53
2023/01/22 12:05:46;;;;;;;7.38;3.30;;;20.80;35.00;;;;;;5015402;28;20037;-48
2023/01/22 12:08:47;;;;;;;14.18;8.25;;;20.80;34.50;;;;;;5032450;28;20067;-52
2023/01/22 12:11:22;;;;;;;41.63;24.13;;;20.80;34.30;;;;;;5031066;28;20029;-50
2023/01/22 12:14:22;;;;;;;44.47;24.85;;;20.80;34.70;;;;;;5029712;28;20491;-50
2023/01/22 12:17:16;;;;;;;35.83;20.88;;;20.80;35.20;;;;;;5031588;28;20417;-55
2023/01/22 12:20:02;;;;;;;27.48;16.17;;;20.80;35.60;;;;;;5031551;28;20595;-52
2023/01/22 12:22:51;;;;;;;24.30;13.70;;;20.80;35.40;;;;;;5029212;28;20025;-54
2023/01/22 12:25:35;;;;;;;20.52;11.23;;;20.80;35.10;;;;;;5033540;28;20030;-53
2023/01/22 12:28:10;;;;;;;17.10;9.35;;;20.80;34.50;;;;;;5031924;28;20105;-56
2023/01/22 12:30:42;;;;;;;14.65;7.78;;;20.90;34.20;;;;;;5024257;28;20039;-55
2023/01/22 12:33:12;;;;;;;12.02;7.30;;;20.90;33.80;;;;;;5038027;28;20033;-55
2023/01/22 12:35:53;;;;;;;11.00;6.40;;;20.90;33.30;;;;;;5035858;28;20039;-54
2023/01/22 12:38:49;;;;;;;8.82;5.63;;;21.00;33.00;;;;;;5015685;28;20030;-56
2023/01/22 12:41:48;;;;;;;7.80;4.72;;;21.00;32.70;;;;;;5019155;28;20022;-54
2023/01/22 12:44:58;;;;;;;9.98;4.72;;;21.10;32.40;;;;;;5037570;28;20079;-55
2023/01/22 12:47:35;;;;;;;7.20;4.28;;;21.20;32.00;;;;;;5020164;28;20427;-55
2023/01/22 12:50:24;;;;;;;5.75;3.78;;;21.30;31.50;;;;;;5035465;28;20037;-55
2023/01/22 12:53:01;;;;;;;7.07;3.60;;;21.40;31.20;;;;;;5033746;28;20469;-56
2023/01/22 12:55:31;;;;;;;6.57;3.20;;;21.50;30.80;;;;;;5026440;28;20077;-56
2023/01/22 12:57:59;;;;;;;6.95;3.67;;;21.50;30.40;;;;;;5033791;28;20033;-53
2023/01/22 13:00:34;;;;;;;6.03;3.03;;;21.60;30.10;;;;;;5030180;28;20115;-53
2023/01/22 13:03:23;;;;;;;4.25;2.47;;;21.70;30.00;;;;;;5009713;28;20084;-56
2023/01/22 13:05:50;;;;;;;5.05;2.88;;;21.70;29.90;;;;;;5025928;28;20104;-55
2023/01/22 13:08:20;;;;;;;5.22;2.53;;;21.70;29.70;;;;;;5029728;28;20035;-54
2023/01/22 13:11:04;;;;;;;5.97;2.40;;;21.70;29.60;;;;;;5025683;28;20029;-53
2023/01/22 13:13:48;;;;;;;3.77;2.30;;;21.80;29.50;;;;;;5024085;28;20037;-51